createdAt,value
2019-03-04T00:00:53.625Z,99.90
2019-03-04T00:03:23.033Z,99.90
2019-03-04T00:05:52.426Z,99.90
2019-03-04T00:08:21.863Z,99.90
2019-03-04T00:10:51.266Z,99.90
2019-03-04T00:13:20.701Z,99.90
2019-03-04T00:15:50.100Z,99.90
2019-03-04T00:18:19.508Z,99.90
2019-03-04T00:20:48.923Z,99.90
2019-03-04T00:23:18.339Z,99.90
2019-03-04T00:25:47.742Z,99.90
2019-03-04T00:28:17.221Z,99.90
2019-03-04T00:30:46.690Z,99.90
2019-03-04T00:33:16.175Z,99.90
2019-03-04T00:35:45.647Z,99.90
2019-03-04T00:38:15.057Z,99.90
2019-03-04T00:40:44.548Z,99.90
2019-03-04T00:43:13.943Z,99.90
2019-03-04T00:45:43.380Z,99.90
2019-03-04T00:48:13.076Z,99.90
2019-03-04T00:50:42.498Z,99.90
2019-03-04T00:53:11.914Z,99.90
2019-03-04T00:55:41.316Z,99.90
2019-03-04T00:58:11.073Z,99.90
2019-03-04T01:00:40.543Z,99.90
2019-03-04T01:03:09.961Z,99.90
2019-03-04T01:09:41.489Z,99.90
2019-03-04T01:12:11.170Z,99.90
2019-03-04T01:14:40.571Z,99.90
2019-03-04T01:17:10.086Z,99.90
2019-03-04T01:19:39.897Z,99.90
2019-03-04T01:22:09.338Z,99.90
2019-03-04T01:24:39.041Z,99.90
2019-03-04T01:27:08.538Z,99.90
2019-03-04T01:29:37.973Z,99.90
2019-03-04T01:32:07.541Z,99.90
2019-03-04T01:34:36.969Z,99.90
2019-03-04T01:37:06.670Z,99.90
2019-03-04T01:39:36.120Z,99.90
2019-03-04T01:42:05.621Z,99.90
2019-03-04T01:44:35.054Z,99.90
2019-03-04T01:47:04.494Z,99.90
2019-03-04T01:49:33.883Z,99.90
2019-03-04T01:52:03.360Z,99.90
2019-03-04T01:54:32.808Z,99.90
2019-03-04T01:57:02.232Z,99.90
2019-03-04T01:59:31.647Z,98.20
2019-03-04T02:02:01.405Z,97.40
2019-03-04T02:04:30.850Z,97.70
2019-03-04T02:07:00.318Z,96.60
2019-03-04T02:09:29.791Z,96.80
2019-03-04T02:11:59.227Z,96.10
2019-03-04T02:14:29.138Z,96.30
2019-03-04T02:16:58.569Z,96.50
2019-03-04T02:19:28.004Z,96.20
2019-03-04T02:21:57.434Z,96.40
2019-03-04T02:24:27.096Z,96.90
2019-03-04T02:26:56.565Z,97.00
2019-03-04T02:29:26.062Z,96.00
2019-03-04T02:31:55.482Z,96.20
2019-03-04T02:34:25.274Z,96.10
2019-03-04T02:36:54.740Z,96.20
2019-03-04T02:39:24.171Z,96.30
2019-03-04T02:41:53.685Z,96.80
2019-03-04T02:44:23.133Z,97.10
2019-03-04T02:46:53.271Z,97.30
2019-03-04T02:49:22.711Z,97.40
2019-03-04T02:51:52.116Z,97.80
2019-03-04T02:54:21.565Z,98.10
2019-03-04T02:56:50.994Z,98.50
2019-03-04T02:59:20.568Z,99.00
2019-03-04T03:01:49.968Z,99.30
2019-03-04T03:04:19.379Z,99.80
2019-03-04T03:06:48.961Z,99.90
2019-03-04T03:09:18.713Z,99.90
2019-03-04T03:11:48.308Z,99.90
2019-03-04T03:14:17.772Z,99.90
2019-03-04T03:16:47.254Z,99.90
2019-03-04T03:19:16.653Z,99.90
2019-03-04T03:21:46.074Z,99.90
2019-03-04T03:24:15.516Z,99.90
2019-03-04T03:26:44.943Z,99.90
2019-03-04T03:29:14.387Z,99.90
2019-03-04T03:31:43.815Z,99.90
2019-03-04T03:34:13.752Z,99.90
2019-03-04T03:36:43.233Z,99.90
2019-03-04T03:39:12.928Z,99.90
2019-03-04T03:41:42.363Z,99.90
2019-03-04T03:44:11.852Z,99.90
2019-03-04T03:46:41.269Z,99.90
2019-03-04T03:49:10.717Z,99.90
2019-03-04T03:51:40.128Z,99.90
2019-03-04T03:54:09.565Z,99.90
2019-03-04T03:56:38.989Z,99.90
2019-03-04T03:59:08.505Z,99.90
2019-03-04T04:01:37.931Z,99.90
2019-03-04T04:04:07.403Z,99.90
2019-03-04T04:06:36.841Z,99.90
2019-03-04T04:09:06.993Z,99.90
2019-03-04T04:11:36.448Z,99.90
2019-03-04T04:14:05.857Z,99.90
2019-03-04T04:16:35.288Z,99.90
2019-03-04T04:19:04.772Z,99.90
2019-03-04T04:21:34.189Z,99.90
2019-03-04T04:24:03.654Z,99.90
2019-03-04T04:26:33.135Z,99.90
2019-03-04T04:29:07.147Z,99.90
2019-03-04T04:31:36.600Z,99.90
2019-03-04T04:34:06.170Z,99.90
2019-03-04T04:36:35.670Z,99.90
2019-03-04T04:39:06.407Z,99.90
2019-03-04T04:41:35.840Z,99.90
2019-03-04T04:44:05.332Z,99.90
2019-03-04T04:46:52.494Z,99.90
2019-03-04T04:49:21.988Z,99.90
2019-03-04T04:51:51.385Z,99.90
2019-03-04T04:54:20.827Z,99.90
2019-03-04T04:56:50.257Z,99.90
2019-03-04T04:59:19.663Z,99.90
2019-03-04T05:01:49.481Z,99.40
2019-03-04T05:04:18.896Z,98.90
2019-03-04T05:06:48.522Z,99.10
2019-03-04T05:09:17.992Z,98.80
2019-03-04T05:11:47.400Z,99.00
2019-03-04T05:14:16.862Z,99.10
2019-03-04T05:16:46.393Z,99.90
2019-03-04T05:19:15.831Z,99.90
2019-03-04T05:21:45.400Z,99.90
2019-03-04T05:24:14.827Z,99.90
2019-03-04T05:26:44.371Z,99.90
2019-03-04T05:29:13.847Z,99.90
2019-03-04T05:31:43.374Z,99.90
2019-03-04T05:34:13.046Z,99.90
2019-03-04T05:36:42.452Z,99.90
2019-03-04T05:39:11.863Z,99.90
2019-03-04T05:41:41.358Z,99.90
2019-03-04T05:44:11.052Z,99.90
2019-03-04T05:46:40.520Z,99.90
2019-03-04T05:49:09.944Z,99.90
2019-03-04T05:51:39.347Z,99.90
2019-03-04T05:54:08.754Z,99.90
2019-03-04T05:56:38.179Z,99.90
2019-03-04T05:59:07.606Z,99.90
2019-03-04T06:01:37.159Z,99.90
2019-03-04T06:04:07.297Z,99.90
2019-03-04T06:06:50.630Z,99.90
2019-03-04T06:09:20.027Z,99.90
2019-03-04T06:12:08.881Z,99.90
2019-03-04T06:14:38.286Z,99.90
2019-03-04T06:17:07.683Z,99.90
2019-03-04T06:19:37.117Z,99.90
2019-03-04T06:22:06.532Z,99.90
2019-03-04T06:24:36.049Z,99.90
2019-03-04T06:27:05.599Z,99.90
2019-03-04T06:29:35.010Z,99.90
2019-03-04T06:32:04.578Z,99.90
2019-03-04T06:34:34.051Z,99.90
2019-03-04T06:37:03.801Z,99.90
2019-03-04T06:39:33.231Z,99.90
2019-03-04T06:42:02.635Z,99.90
2019-03-04T06:44:32.390Z,99.90
2019-03-04T06:47:01.811Z,99.90
2019-03-04T06:49:31.268Z,99.90
2019-03-04T06:52:00.672Z,99.90
2019-03-04T06:54:46.494Z,99.90
2019-03-04T06:57:16.543Z,99.90
2019-03-04T07:00:14.969Z,99.90
2019-03-04T07:02:46.320Z,99.90
2019-03-04T07:05:45.627Z,99.90
2019-03-04T07:08:39.803Z,99.90
2019-03-04T07:11:09.848Z,99.90
2019-03-04T07:13:39.266Z,99.90
2019-03-04T07:16:08.744Z,99.90
2019-03-04T07:18:38.355Z,99.90
2019-03-04T07:21:07.845Z,99.90
2019-03-04T07:23:37.282Z,99.90
2019-03-04T07:26:06.756Z,99.90
2019-03-04T07:28:36.179Z,99.90
2019-03-04T07:31:06.027Z,99.90
2019-03-04T07:33:35.723Z,99.90
2019-03-04T07:36:05.551Z,99.90
2019-03-04T07:38:45.622Z,99.90
2019-03-04T07:41:15.120Z,99.90
2019-03-04T07:43:44.590Z,99.90
2019-03-04T07:46:14.033Z,99.90
2019-03-04T07:48:43.448Z,99.90
2019-03-04T07:51:15.286Z,99.90
2019-03-04T07:53:46.725Z,99.90
2019-03-04T07:56:16.794Z,99.90
2019-03-04T07:58:46.213Z,99.90
2019-03-04T08:01:15.618Z,99.90
2019-03-04T08:03:45.111Z,99.90
2019-03-04T08:06:14.727Z,99.90
2019-03-04T08:09:04.797Z,99.90
2019-03-04T08:12:07.348Z,99.90
2019-03-04T08:14:36.776Z,99.90
2019-03-04T08:17:06.252Z,99.90
2019-03-04T08:19:35.651Z,99.90
2019-03-04T08:22:05.214Z,99.90
2019-03-04T08:24:34.649Z,99.90
2019-03-04T08:27:04.501Z,99.90
2019-03-04T08:29:33.991Z,99.90
2019-03-04T08:32:03.412Z,99.90
2019-03-04T08:34:33.141Z,99.90
2019-03-04T08:37:02.594Z,99.90
2019-03-04T08:39:31.992Z,99.90
2019-03-04T08:42:01.432Z,99.90
2019-03-04T08:44:31.175Z,99.90
2019-03-04T08:47:00.822Z,99.90
2019-03-04T08:49:30.227Z,99.90
2019-03-04T08:51:59.677Z,99.90
2019-03-04T08:54:29.133Z,99.90
2019-03-04T08:57:03.903Z,99.90
2019-03-04T08:59:31.691Z,99.90
2019-03-04T09:02:01.097Z,99.90
2019-03-04T09:04:30.507Z,99.90
2019-03-04T09:06:59.926Z,99.90
2019-03-04T09:09:29.322Z,99.90
2019-03-04T09:11:58.778Z,99.90
2019-03-04T09:14:28.365Z,99.90
2019-03-04T09:16:57.799Z,99.90
2019-03-04T09:19:27.226Z,99.90
2019-03-04T09:21:56.637Z,99.90
2019-03-04T09:24:26.147Z,99.90
2019-03-04T09:26:55.554Z,99.90
2019-03-04T09:29:24.992Z,99.90
2019-03-04T09:31:54.397Z,99.90
2019-03-04T09:34:23.822Z,99.90
2019-03-04T09:36:53.236Z,99.90
2019-03-04T09:39:22.708Z,99.90
2019-03-04T09:41:53.873Z,99.90
2019-03-04T09:44:23.279Z,99.90
2019-03-04T09:46:52.682Z,99.90
2019-03-04T09:49:22.185Z,99.90
2019-03-04T09:51:51.589Z,99.90
2019-03-04T09:54:21.003Z,99.90
2019-03-04T09:56:50.403Z,99.90
2019-03-04T09:59:19.810Z,99.90
2019-03-04T10:01:51.942Z,99.90
2019-03-04T10:04:43.587Z,99.90
2019-03-04T10:07:35.630Z,99.90
2019-03-04T10:10:21.212Z,99.90
2019-03-04T10:13:13.600Z,99.90
2019-03-04T10:15:56.589Z,99.90
2019-03-04T10:19:05.576Z,99.90
2019-03-04T10:22:00.405Z,99.90
2019-03-04T10:25:00.162Z,99.90
2019-03-04T10:27:46.173Z,99.90
2019-03-04T10:30:26.066Z,99.90
2019-03-04T10:33:21.177Z,99.90
2019-03-04T10:36:16.389Z,99.90
2019-03-04T10:39:05.112Z,99.90
2019-03-04T10:42:01.759Z,99.90
2019-03-04T10:44:41.883Z,99.90
2019-03-04T10:47:11.325Z,99.90
2019-03-04T10:49:41.207Z,99.90
2019-03-04T10:52:10.699Z,99.90
2019-03-04T10:54:40.132Z,99.90
2019-03-04T10:57:09.543Z,99.90
2019-03-04T10:59:39.052Z,99.90
2019-03-04T11:02:08.942Z,99.90
2019-03-04T11:04:38.391Z,99.90
2019-03-04T11:07:07.899Z,99.90
2019-03-04T11:09:37.342Z,99.90
2019-03-04T11:12:06.832Z,99.90
2019-03-04T11:14:36.314Z,99.90
2019-03-04T11:17:05.798Z,99.90
2019-03-04T11:19:35.249Z,99.90
2019-03-04T11:22:04.823Z,99.90
2019-03-04T11:24:34.336Z,99.90
2019-03-04T11:27:04.100Z,99.90
2019-03-04T11:29:33.516Z,99.90
2019-03-04T11:32:03.370Z,99.90
2019-03-04T11:34:32.816Z,99.90
2019-03-04T11:37:02.616Z,99.90
2019-03-04T11:39:45.772Z,99.90
2019-03-04T11:42:15.271Z,99.90
2019-03-04T11:44:44.842Z,97.30
2019-03-04T11:47:14.443Z,96.20
2019-03-04T11:49:43.921Z,95.80
2019-03-04T11:52:13.369Z,95.20
2019-03-04T11:54:42.815Z,95.60
2019-03-04T11:57:12.383Z,92.10
2019-03-04T11:59:41.887Z,96.50
2019-03-04T12:02:13.022Z,93.40
2019-03-04T12:04:42.421Z,92.60
2019-03-04T12:07:11.865Z,92.60
2019-03-04T12:09:41.285Z,92.70
2019-03-04T12:12:11.280Z,91.80
2019-03-04T12:14:40.828Z,90.40
2019-03-04T12:17:10.323Z,91.70
2019-03-04T12:19:39.736Z,91.90
2019-03-04T12:22:09.223Z,90.00
2019-03-04T12:24:38.943Z,90.00
2019-03-04T12:27:08.592Z,91.60
2019-03-04T12:29:38.668Z,89.50
2019-03-04T12:32:09.964Z,90.00
2019-03-04T12:34:39.447Z,89.70
2019-03-04T12:37:11.451Z,90.00
2019-03-04T12:39:40.995Z,88.70
2019-03-04T12:42:10.506Z,88.90
2019-03-04T12:44:41.544Z,90.50
2019-03-04T12:47:11.237Z,90.80
2019-03-04T12:49:40.655Z,85.40
2019-03-04T12:52:10.198Z,87.50
2019-03-04T12:54:40.103Z,86.70
2019-03-04T12:57:09.525Z,89.50
2019-03-04T12:59:38.958Z,88.90
2019-03-04T13:02:08.622Z,91.70
2019-03-04T13:04:38.087Z,88.20
2019-03-04T13:07:07.540Z,90.20
2019-03-04T13:09:37.027Z,90.20
2019-03-04T13:12:12.411Z,88.60
2019-03-04T13:14:41.851Z,82.20
2019-03-04T13:17:11.265Z,80.90
2019-03-04T13:19:40.769Z,77.80
2019-03-04T13:22:10.253Z,82.60
2019-03-04T13:24:39.715Z,82.00
2019-03-04T13:27:09.265Z,86.40
2019-03-04T13:29:38.675Z,84.60
2019-03-04T13:32:08.401Z,82.40
2019-03-04T13:34:38.004Z,81.10
2019-03-04T13:37:07.504Z,83.80
2019-03-04T13:39:37.445Z,82.00
2019-03-04T13:42:06.930Z,84.20
2019-03-04T13:44:36.885Z,86.60
2019-03-04T13:47:06.457Z,86.10
2019-03-04T13:49:35.940Z,88.50
2019-03-04T13:52:05.504Z,86.80
2019-03-04T13:54:35.121Z,85.80
2019-03-04T13:57:04.665Z,84.50
2019-03-04T13:59:34.137Z,86.00
2019-03-04T14:02:03.771Z,83.10
2019-03-04T14:04:33.216Z,86.70
2019-03-04T14:07:02.660Z,85.70
2019-03-04T14:09:32.038Z,81.60
2019-03-04T14:12:01.460Z,79.70
2019-03-04T14:14:31.239Z,76.70
2019-03-04T14:17:00.812Z,73.30
2019-03-04T14:19:30.246Z,74.70
2019-03-04T14:21:59.741Z,73.20
2019-03-04T14:24:29.160Z,72.00
2019-03-04T14:26:58.664Z,72.60
2019-03-04T14:29:28.092Z,73.20
2019-03-04T14:31:57.611Z,74.50
2019-03-04T14:34:27.199Z,73.00
2019-03-04T14:36:56.618Z,70.90
2019-03-04T14:39:26.041Z,72.50
2019-03-04T14:41:57.234Z,75.70
2019-03-04T14:44:26.726Z,73.80
2019-03-04T14:46:56.199Z,74.30
2019-03-04T14:49:25.983Z,76.00
2019-03-04T14:51:55.483Z,77.30
2019-03-04T14:54:25.232Z,76.00
2019-03-04T14:56:54.760Z,77.00
2019-03-04T14:59:24.154Z,78.80
2019-03-04T15:01:53.926Z,83.40
2019-03-04T15:04:23.359Z,86.60
2019-03-04T15:06:52.795Z,88.80
2019-03-04T15:09:22.366Z,89.30
2019-03-04T15:11:51.833Z,91.90
2019-03-04T15:14:28.458Z,93.10
2019-03-04T15:17:03.345Z,93.90
2019-03-04T15:19:29.183Z,94.80
2019-03-04T15:21:59.071Z,95.60
2019-03-04T15:24:28.623Z,94.10
2019-03-04T15:26:58.192Z,94.20
2019-03-04T15:29:27.677Z,95.00
2019-03-04T15:31:57.258Z,94.90
2019-03-04T15:34:26.950Z,94.20
2019-03-04T15:36:56.465Z,93.40
2019-03-04T15:39:26.067Z,94.40
2019-03-04T15:41:55.771Z,93.10
2019-03-04T15:44:25.268Z,95.10
2019-03-04T15:46:54.845Z,95.10
2019-03-04T15:49:24.311Z,93.20
2019-03-04T15:51:53.826Z,93.90
2019-03-04T15:54:23.533Z,94.20
2019-03-04T15:56:53.044Z,94.30
2019-03-04T15:59:22.888Z,94.80
2019-03-04T16:01:52.396Z,94.10
2019-03-04T16:04:21.990Z,94.10
2019-03-04T16:06:51.549Z,93.40
2019-03-04T16:09:21.104Z,94.40
2019-03-04T16:11:52.225Z,95.20
2019-03-04T16:14:21.926Z,95.80
2019-03-04T16:16:51.438Z,96.30
2019-03-04T16:19:21.023Z,95.70
2019-03-04T16:21:50.737Z,95.00
2019-03-04T16:24:20.238Z,94.90
2019-03-04T16:26:50.319Z,94.70
2019-03-04T16:29:21.295Z,95.50
2019-03-04T16:31:53.831Z,95.80
2019-03-04T16:34:23.769Z,96.40
2019-03-04T16:36:53.144Z,94.90
2019-03-04T16:39:22.843Z,94.00
2019-03-04T16:41:54.141Z,94.30
2019-03-04T16:44:23.582Z,94.40
2019-03-04T16:46:53.091Z,94.60
2019-03-04T16:49:22.527Z,95.20
2019-03-04T16:51:52.096Z,95.00
2019-03-04T16:54:21.599Z,96.60
2019-03-04T16:56:51.019Z,98.00
2019-03-04T16:59:20.482Z,98.10
2019-03-04T17:01:49.972Z,98.00
2019-03-04T17:04:19.954Z,98.70
2019-03-04T17:06:51.145Z,97.80
2019-03-04T17:09:22.378Z,97.30
2019-03-04T17:11:53.901Z,96.90
2019-03-04T17:14:23.100Z,97.50
2019-03-04T17:16:54.054Z,98.50
2019-03-04T17:19:25.035Z,98.30
2019-03-04T17:21:54.779Z,98.50
2019-03-04T17:24:24.420Z,98.70
2019-03-04T17:26:53.909Z,99.10
2019-03-04T17:29:23.449Z,99.80
2019-03-04T17:31:53.102Z,99.60
2019-03-04T17:34:22.529Z,99.90
2019-03-04T17:36:54.248Z,99.90
2019-03-04T17:39:23.710Z,99.90
2019-03-04T17:41:53.312Z,99.90
2019-03-04T17:44:24.329Z,99.90
2019-03-04T17:46:54.004Z,99.90
2019-03-04T17:49:23.498Z,99.90
2019-03-04T17:51:52.938Z,99.90
2019-03-04T17:54:22.359Z,99.90
2019-03-04T17:56:51.847Z,99.90
2019-03-04T17:59:21.637Z,99.90
2019-03-04T18:01:51.451Z,99.90
2019-03-04T18:04:20.966Z,99.90
2019-03-04T18:06:52.304Z,99.90
2019-03-04T18:09:21.926Z,99.90
2019-03-04T18:11:51.555Z,99.90
2019-03-04T18:14:21.286Z,99.90
2019-03-04T18:16:51.277Z,99.90
2019-03-04T18:19:20.947Z,99.90
2019-03-04T18:21:50.604Z,99.90
2019-03-04T18:24:20.116Z,99.90
2019-03-04T18:26:50.802Z,99.90
2019-03-04T18:29:35.819Z,99.90
2019-03-04T18:32:25.032Z,99.90
2019-03-04T18:35:08.009Z,99.90
2019-03-04T18:37:56.248Z,99.90
2019-03-04T18:40:36.073Z,99.90
2019-03-04T18:43:33.572Z,99.90
2019-03-04T18:46:46.467Z,99.90
2019-03-04T18:49:15.893Z,99.90
2019-03-04T18:51:45.337Z,99.90
2019-03-04T18:54:14.818Z,99.90
2019-03-04T18:56:44.512Z,99.90
2019-03-04T18:59:14.174Z,99.90
2019-03-04T19:01:43.580Z,99.90
2019-03-04T19:04:13.061Z,99.90
2019-03-04T19:06:42.515Z,99.90
2019-03-04T19:09:12.153Z,99.90
2019-03-04T19:11:41.726Z,99.90
2019-03-04T19:14:11.248Z,99.90
2019-03-04T19:16:40.694Z,99.90
2019-03-04T19:19:13.976Z,99.90
2019-03-04T19:21:43.463Z,99.90
2019-03-04T19:24:13.703Z,99.90
2019-03-04T19:26:44.856Z,99.90
2019-03-04T19:29:14.658Z,99.90
2019-03-04T19:31:44.480Z,99.90
2019-03-04T19:34:14.050Z,99.90
2019-03-04T19:36:43.563Z,99.90
2019-03-04T19:39:13.218Z,99.90
2019-03-04T19:41:42.620Z,99.90
2019-03-04T19:44:12.417Z,99.90
2019-03-04T19:46:42.004Z,99.90
2019-03-04T19:49:11.510Z,99.90
2019-03-04T19:51:41.075Z,99.90
2019-03-04T19:54:10.618Z,99.90
2019-03-04T19:56:40.157Z,99.90
2019-03-04T19:59:09.752Z,99.90
2019-03-04T20:01:39.420Z,99.90
2019-03-04T20:04:08.987Z,99.90
2019-03-04T20:06:38.483Z,99.90
2019-03-04T20:09:08.265Z,99.90
2019-03-04T20:11:37.825Z,99.90
2019-03-04T20:14:07.409Z,99.90
2019-03-04T20:16:36.905Z,99.90
2019-03-04T20:19:06.856Z,99.90
2019-03-04T20:21:36.461Z,99.90
2019-03-04T20:24:06.033Z,99.90
2019-03-04T20:26:35.544Z,99.90
2019-03-04T20:29:05.047Z,99.90
2019-03-04T20:31:34.675Z,99.90
2019-03-04T20:34:04.646Z,99.90
2019-03-04T20:36:34.066Z,99.90
2019-03-04T20:39:04.784Z,99.90
2019-03-04T20:41:34.430Z,99.90
2019-03-04T20:44:04.050Z,99.90
2019-03-04T20:46:33.561Z,99.90
2019-03-04T20:49:03.211Z,99.90
2019-03-04T20:51:32.641Z,99.90
2019-03-04T20:54:02.238Z,99.90
2019-03-04T20:56:32.039Z,99.90
2019-03-04T20:59:01.444Z,99.90
2019-03-04T21:01:31.079Z,99.90
2019-03-04T21:04:00.536Z,99.90
2019-03-04T21:06:30.118Z,99.90
2019-03-04T21:08:59.826Z,99.90
2019-03-04T21:11:29.410Z,99.90
2019-03-04T21:13:59.015Z,99.90
2019-03-04T21:16:28.671Z,99.90
2019-03-04T21:18:58.469Z,99.90
2019-03-04T21:21:28.012Z,99.90
2019-03-04T21:23:57.612Z,99.90
2019-03-04T21:26:27.418Z,99.90
2019-03-04T21:29:16.904Z,99.90
2019-03-04T21:31:59.640Z,99.90
2019-03-04T21:35:19.520Z,99.90
2019-03-04T21:37:49.502Z,99.90
2019-03-04T21:40:35.436Z,99.90
2019-03-04T21:43:09.583Z,99.90
2019-03-04T21:45:59.343Z,99.90
2019-03-04T21:48:45.952Z,99.90
2019-03-04T21:51:37.873Z,99.90
2019-03-04T21:54:00.025Z,99.90
2019-03-04T21:57:03.184Z,99.90
2019-03-04T21:59:32.628Z,99.90
2019-03-04T22:02:12.731Z,99.90
2019-03-04T22:04:42.264Z,99.90
2019-03-04T22:07:12.315Z,99.90
2019-03-04T22:09:41.776Z,99.90
2019-03-04T22:12:14.104Z,99.90
2019-03-04T22:14:43.662Z,99.90
2019-03-04T22:17:13.202Z,99.90
2019-03-04T22:19:42.614Z,99.90
2019-03-04T22:22:12.286Z,99.90
2019-03-04T22:24:41.831Z,99.90
2019-03-04T22:27:11.282Z,99.90
2019-03-04T22:29:41.149Z,99.90
2019-03-04T22:32:10.613Z,99.90
2019-03-04T22:34:41.596Z,99.90
2019-03-04T22:37:11.046Z,99.90
2019-03-04T22:39:40.861Z,99.90
2019-03-04T22:42:10.315Z,99.90
2019-03-04T22:44:39.694Z,99.90
2019-03-04T22:47:09.174Z,99.90
2019-03-04T22:49:38.570Z,99.90
2019-03-04T22:52:08.108Z,99.90
2019-03-04T22:54:37.546Z,99.90
2019-03-04T22:57:07.029Z,99.90
2019-03-04T22:59:36.540Z,99.90
2019-03-04T23:02:06.435Z,99.90
2019-03-04T23:04:35.950Z,99.90
2019-03-04T23:07:09.640Z,99.90
2019-03-04T23:09:49.476Z,99.90
2019-03-04T23:12:32.633Z,99.90
2019-03-04T23:15:02.074Z,99.90
2019-03-04T23:17:31.501Z,99.90
2019-03-04T23:20:20.459Z,99.90
2019-03-04T23:22:49.832Z,99.90
2019-03-04T23:25:19.359Z,99.90
2019-03-04T23:27:48.798Z,99.90
2019-03-04T23:30:18.279Z,99.90
2019-03-04T23:32:47.856Z,99.90
2019-03-04T23:35:17.279Z,99.90
2019-03-04T23:37:46.706Z,99.90
2019-03-04T23:40:16.833Z,99.90
2019-03-04T23:42:46.269Z,99.90
2019-03-04T23:45:15.777Z,99.90
2019-03-04T23:47:45.217Z,99.90
2019-03-04T23:50:18.345Z,99.90
2019-03-04T23:52:47.899Z,99.90
2019-03-04T23:55:17.468Z,99.90
2019-03-04T23:57:46.838Z,99.90
